Time;durP1;ratioP1;P1;durP2;ratioP2;P2;SDS_P1;SDS_P2;PMS_P1;PMS_P2;Temp;Humidity;BMP_temperature;BMP_pressure;BME280_temperature;BME280_humidity;BME280_pressure;Samples;Min_cycle;Max_cycle;Signal;HPM_P1;HPM_P2
2023/03/12 00:02:12;;;;;;;;;;;;;;;4.64;100.00;98836.25;5004376;28;20457;-40
2023/03/12 00:04:37;;;;;;;;;;;;;;;4.61;100.00;98847.34;5005752;28;20028;-40
2023/03/12 00:07:05;;;;;;;;;;;;;;;4.92;100.00;98843.59;5006575;28;19921;-40
2023/03/12 00:09:30;;;;;;;;;;;;;;;4.60;100.00;98804.81;5008745;28;19960;-40
2023/03/12 00:11:55;;;;;;;;;;;;;;;3.72;100.00;98812.44;5004734;28;19968;-40
2023/03/12 00:14:20;;;;;;;;;;;;;;;4.48;100.00;98845.75;5007541;28;19968;-40
2023/03/12 00:16:46;;;;;;;;;;;;;;;4.85;100.00;98835.16;5009267;28;19924;-40
2023/03/12 00:19:11;;;;;;;;;;;;;;;4.59;100.00;98830.34;5009366;28;19987;-40
2023/03/12 00:21:37;;;;;;;;;;;;;;;3.92;100.00;98814.84;5007471;28;19981;-40
2023/03/12 00:24:02;;;;;;;;;;;;;;;4.99;100.00;98843.50;5007950;28;19921;-40
2023/03/12 00:26:27;;;;;;;;;;;;;;;4.73;100.00;98817.44;5008186;28;19926;-40
2023/03/12 00:28:52;;;;;;;;;;;;;;;4.36;100.00;98807.66;5008143;28;19924;-40
2023/03/12 00:31:19;;;;;;;;;;;;;;;4.72;100.00;98829.38;5006814;28;19917;-40
2023/03/12 00:33:44;;;;;;;;;;;;;;;4.71;100.00;98831.94;5009923;28;19924;-40
2023/03/12 00:36:10;;;;;;;;;;;;;;;4.78;100.00;98813.13;5007332;28;20306;-40
2023/03/12 00:38:35;;;;;;;;;;;;;;;4.15;100.00;98807.00;5005597;28;20058;-40
2023/03/12 00:41:00;;;;;;;;;;;;;;;4.86;100.00;98800.28;5009599;28;19917;-40
2023/03/12 00:43:25;;;;;;;;;;;;;;;4.94;100.00;98799.31;5005978;28;19924;-40
2023/03/12 00:45:51;;;;;;;;;;;;;;;5.09;100.00;98792.34;5007452;28;19917;-40
2023/03/12 00:48:16;;;;;;;;;;;;;;;5.35;100.00;98763.91;5004562;28;19990;-40
2023/03/12 00:50:41;;;;;;;;;;;;;;;5.10;100.00;98730.22;5006502;28;19972;-40
2023/03/12 00:53:06;;;;;;;;;;;;;;;4.51;100.00;98705.47;5007020;28;20016;-40
2023/03/12 00:55:31;;;;;;;;;;;;;;;5.11;100.00;98706.38;5009814;28;20075;-40
2023/03/12 00:57:57;;;;;;;;;;;;;;;5.18;100.00;98679.91;5008229;28;20012;-40
2023/03/12 01:00:22;;;;;;;;;;;;;;;4.43;100.00;98665.66;4999918;28;19952;-40
2023/03/12 01:02:47;;;;;;;;;;;;;;;4.64;100.00;98688.31;4994677;28;19955;-40
2023/03/12 01:05:13;;;;;;;;;;;;;;;4.12;100.00;98687.22;4994565;28;19917;-40
2023/03/12 01:07:38;;;;;;;;;;;;;;;4.13;100.00;98688.09;4994288;28;20016;-40
2023/03/12 01:10:04;;;;;;;;;;;;;;;4.56;100.00;98682.47;4995501;28;19921;-40
2023/03/12 01:12:29;;;;;;;;;;;;;;;3.84;100.00;98673.94;4994060;28;19995;-40
2023/03/12 01:14:54;;;;;;;;;;;;;;;4.28;100.00;98710.00;4994683;28;19944;-40
2023/03/12 01:17:20;;;;;;;;;;;;;;;4.76;100.00;98693.25;4993779;28;19981;-40
2023/03/12 01:19:45;;;;;;;;;;;;;;;4.24;100.00;98677.75;4992138;28;19930;-40
2023/03/12 01:22:10;;;;;;;;;;;;;;;4.29;100.00;98699.81;4993700;28;21682;-40
2023/03/12 01:24:35;;;;;;;;;;;;;;;4.39;100.00;98693.72;4991639;28;20016;-40
2023/03/12 01:27:00;;;;;;;;;;;;;;;4.37;100.00;98682.69;4994404;28;19914;-40
2023/03/12 01:29:26;;;;;;;;;;;;;;;3.89;100.00;98686.63;4993755;28;19925;-40
2023/03/12 01:31:51;;;;;;;;;;;;;;;4.16;100.00;98714.38;4992166;28;19924;-40
2023/03/12 01:34:17;;;;;;;;;;;;;;;4.60;100.00;98723.19;4993563;28;19921;-41
2023/03/12 01:36:43;;;;;;;;;;;;;;;3.61;100.00;98706.44;4993792;28;19921;-40
2023/03/12 01:39:09;;;;;;;;;;;;;;;3.61;100.00;98702.19;4994528;28;19968;-40
2023/03/12 01:41:34;;;;;;;;;;;;;;;4.59;100.00;98724.09;4993592;28;19921;-40
2023/03/12 01:44:02;;;;;;;;;;;;;;;3.91;100.00;98720.59;4993048;28;19928;-40
2023/03/12 01:46:34;;;;;;;;;;;;;;;3.66;100.00;98710.63;4993073;28;19999;-40
2023/03/12 01:49:19;;;;;;;;;;;;;;;3.60;100.00;98720.84;4994917;28;19928;-40
2023/03/12 01:51:52;;;;;;;;;;;;;;;4.16;100.00;98747.50;4992214;28;19917;-40
2023/03/12 01:54:18;;;;;;;;;;;;;;;3.73;100.00;98750.44;4992975;28;20302;-40
2023/03/12 01:56:44;;;;;;;;;;;;;;;3.93;100.00;98749.44;4992912;28;19960;-40
2023/03/12 01:59:11;;;;;;;;;;;;;;;3.88;100.00;98751.19;4992316;28;20015;-40
2023/03/12 02:01:37;;;;;;;;;;;;;;;3.54;100.00;98762.50;4993005;28;19917;-40
2023/03/12 02:04:02;;;;;;;;;;;;;;;4.56;100.00;98771.72;4992165;28;20938;-40
2023/03/12 02:06:36;;;;;;;;;;;;;;;4.06;100.00;98750.16;4995023;28;19975;-40
2023/03/12 02:09:01;;;;;;;;;;;;;;;4.00;100.00;98761.25;4991433;28;20074;-40
2023/03/12 02:11:26;;;;;;;;;;;;;;;3.71;100.00;98758.97;4993831;28;21226;-40
2023/03/12 02:13:51;;;;;;;;;;;;;;;3.90;100.00;98759.63;4993683;28;19937;-40
2023/03/12 02:16:17;;;;;;;;;;;;;;;3.58;100.00;98753.16;4992222;28;19925;-40
2023/03/12 02:18:42;;;;;;;;;;;;;;;3.34;100.00;98739.72;4984793;28;19949;-40
2023/03/12 02:21:10;;;;;;;;;;;;;;;3.86;100.00;98779.22;4992322;28;19999;-40
2023/03/12 02:23:46;;;;;;;;;;;;;;;3.86;100.00;98791.13;4992424;28;20549;-40
2023/03/12 02:26:12;;;;;;;;;;;;;;;3.62;100.00;98789.59;4992233;28;19964;-40
2023/03/12 02:28:42;;;;;;;;;;;;;;;3.83;100.00;98789.44;4991633;28;20604;-40
2023/03/12 02:31:08;;;;;;;;;;;;;;;3.90;100.00;98805.50;4991296;28;20345;-40
2023/03/12 02:33:33;;;;;;;;;;;;;;;3.65;100.00;98785.34;4992223;28;19921;-40
2023/03/12 02:35:58;;;;;;;;;;;;;;;3.53;100.00;98801.53;4992667;28;20026;-40
2023/03/12 02:38:33;;;;;;;;;;;;;;;3.69;100.00;98812.44;4993235;28;20016;-40
2023/03/12 02:41:03;;;;;;;;;;;;;;;3.13;100.00;98795.84;4993153;28;20024;-40
2023/03/12 02:43:28;;;;;;;;;;;;;;;3.80;100.00;98826.81;4992179;28;19921;-40
2023/03/12 02:45:54;;;;;;;;;;;;;;;3.98;100.00;98832.59;4992758;28;19956;-40
2023/03/12 02:48:19;;;;;;;;;;;;;;;3.95;100.00;98814.81;4993436;28;19933;-40
2023/03/12 02:50:44;;;;;;;;;;;;;;;3.65;100.00;98826.09;4991025;28;20497;-40
2023/03/12 02:53:09;;;;;;;;;;;;;;;4.29;100.00;98851.88;4988030;28;19954;-40
2023/03/12 02:55:35;;;;;;;;;;;;;;;3.85;100.00;98822.53;4990215;28;20346;-40
2023/03/12 02:58:00;;;;;;;;;;;;;;;4.06;100.00;98826.59;4990040;28;19987;-40
2023/03/12 03:00:25;;;;;;;;;;;;;;;4.12;100.00;98827.41;4989645;28;20302;-40
2023/03/12 03:02:50;;;;;;;;;;;;;;;3.67;100.00;98804.00;4989997;28;20028;-40
2023/03/12 03:05:16;;;;;;;;;;;;;;;3.91;100.00;98814.84;4990835;28;20016;-40
2023/03/12 03:07:41;;;;;;;;;;;;;;;3.62;100.00;98805.72;4990023;28;19917;-40
2023/03/12 03:10:06;;;;;;;;;;;;;;;3.75;100.00;98809.03;4991285;28;19917;-40
2023/03/12 03:12:35;;;;;;;;;;;;;;;3.71;100.00;98802.25;4989121;28;20222;-40
2023/03/12 03:15:00;;;;;;;;;;;;;;;3.52;100.00;98793.91;4989775;28;20651;-40
2023/03/12 03:17:25;;;;;;;;;;;;;;;3.35;100.00;98802.53;4987757;28;19933;-40
2023/03/12 03:19:51;;;;;;;;;;;;;;;3.06;100.00;98796.75;4991182;28;20016;-40
2023/03/12 03:22:16;;;;;;;;;;;;;;;3.16;100.00;98811.09;4989726;28;20298;-40
2023/03/12 03:24:42;;;;;;;;;;;;;;;3.28;100.00;98805.94;4989310;28;20107;-40
2023/03/12 03:27:07;;;;;;;;;;;;;;;3.42;100.00;98792.28;4990097;28;19987;-40
2023/03/12 03:29:32;;;;;;;;;;;;;;;4.34;100.00;98822.13;4988578;28;21273;-41
2023/03/12 03:31:57;;;;;;;;;;;;;;;3.61;100.00;98793.84;4990635;28;20012;-40
2023/03/12 03:34:22;;;;;;;;;;;;;;;3.60;100.00;98774.31;4989304;28;19991;-40
2023/03/12 03:36:48;;;;;;;;;;;;;;;3.36;100.00;98785.53;4989190;28;19975;-40
2023/03/12 03:39:13;;;;;;;;;;;;;;;3.25;100.00;98805.97;4989914;28;19976;-40
2023/03/12 03:41:38;;;;;;;;;;;;;;;3.77;100.00;98813.25;4987008;28;20012;-40
2023/03/12 03:44:04;;;;;;;;;;;;;;;4.12;100.00;98809.56;4989388;28;20011;-40
2023/03/12 03:46:29;;;;;;;;;;;;;;;4.10;100.00;98806.16;4987863;28;19994;-40
2023/03/12 03:48:54;;;;;;;;;;;;;;;4.43;100.00;98781.22;4988445;28;20763;-40
2023/03/12 03:51:19;;;;;;;;;;;;;;;4.24;100.00;98751.69;4988934;28;21352;-40
2023/03/12 03:53:45;;;;;;;;;;;;;;;4.37;100.00;98746.44;4989550;28;19928;-40
2023/03/12 03:56:11;;;;;;;;;;;;;;;4.10;100.00;98727.16;4990775;28;20524;-40
2023/03/12 03:58:36;;;;;;;;;;;;;;;3.96;100.00;98722.22;4987590;28;19935;-40
2023/03/12 04:01:02;;;;;;;;;;;;;;;4.01;100.00;98727.28;4988223;28;19921;-40
2023/03/12 04:03:27;;;;;;;;;;;;;;;4.01;100.00;98732.38;4988805;28;19936;-40
2023/03/12 04:05:55;;;;;;;;;;;;;;;3.56;100.00;98698.84;4988649;28;20048;-40
2023/03/12 04:08:20;;;;;;;;;;;;;;;3.85;100.00;98718.09;4989821;28;19914;-40
2023/03/12 04:10:45;;;;;;;;;;;;;;;4.96;100.00;98703.19;4989629;28;19933;-40
2023/03/12 04:13:10;;;;;;;;;;;;;;;5.26;100.00;98652.53;4991174;28;19932;-40
2023/03/12 04:15:36;;;;;;;;;;;;;;;5.17;100.00;98601.63;4989727;28;19935;-40
2023/03/12 04:18:01;;;;;;;;;;;;;;;4.49;100.00;98571.22;4988528;28;19921;-40
2023/03/12 04:20:26;;;;;;;;;;;;;;;4.78;100.00;98573.34;4988463;28;20452;-40
2023/03/12 04:22:51;;;;;;;;;;;;;;;5.12;100.00;98529.41;4989172;28;20798;-40
2023/03/12 04:25:16;;;;;;;;;;;;;;;3.75;100.00;98527.16;4988158;28;20435;-40
2023/03/12 04:27:42;;;;;;;;;;;;;;;3.19;100.00;98560.88;4991011;28;20673;-40
2023/03/12 04:30:07;;;;;;;;;;;;;;;4.12;100.00;98604.84;4989363;28;19917;-40
2023/03/12 04:32:33;;;;;;;;;;;;;;;4.02;100.00;98606.69;4988613;28;20286;-40
2023/03/12 04:34:58;;;;;;;;;;;;;;;4.04;100.00;98612.59;4989555;28;19925;-40
2023/03/12 04:37:23;;;;;;;;;;;;;;;3.38;100.00;98607.38;4989476;28;19928;-40
2023/03/12 04:39:48;;;;;;;;;;;;;;;3.78;100.00;98623.91;4988843;28;19925;-40
2023/03/12 04:42:13;;;;;;;;;;;;;;;3.66;100.00;98629.13;4987589;28;19918;-40
2023/03/12 04:44:39;;;;;;;;;;;;;;;3.40;100.00;98631.06;4987601;28;19937;-40
2023/03/12 04:47:05;;;;;;;;;;;;;;;3.34;100.00;98637.91;4988991;28;19963;-40
2023/03/12 04:49:30;;;;;;;;;;;;;;;4.21;100.00;98657.41;4988614;28;20000;-40
2023/03/12 04:51:55;;;;;;;;;;;;;;;3.66;100.00;98629.13;4988636;28;19940;-40
2023/03/12 04:54:21;;;;;;;;;;;;;;;3.75;100.00;98640.94;4983481;28;19953;-40
2023/03/12 04:56:47;;;;;;;;;;;;;;;3.61;100.00;98638.53;4991213;28;19971;-40
2023/03/12 04:59:12;;;;;;;;;;;;;;;3.70;100.00;98651.16;4996737;28;20031;-40
2023/03/12 05:01:37;;;;;;;;;;;;;;;4.11;100.00;98639.69;4987936;28;20860;-40
2023/03/12 05:04:03;;;;;;;;;;;;;;;3.90;100.00;98632.28;4986715;28;19922;-40
2023/03/12 05:06:28;;;;;;;;;;;;;;;3.96;100.00;98622.03;4987643;28;19925;-40
2023/03/12 05:08:53;;;;;;;;;;;;;;;4.53;100.00;98614.50;4987079;28;20213;-40
2023/03/12 05:11:19;;;;;;;;;;;;;;;4.46;100.00;98607.81;4985196;28;20655;-41
2023/03/12 05:13:44;;;;;;;;;;;;;;;3.89;100.00;98583.03;4987243;28;19921;-40
2023/03/12 05:16:10;;;;;;;;;;;;;;;3.95;100.00;98597.41;4989789;28;19924;-40
2023/03/12 05:18:35;;;;;;;;;;;;;;;3.94;100.00;98588.91;4989463;28;19936;-40
2023/03/12 05:21:01;;;;;;;;;;;;;;;3.82;100.00;98575.50;4988084;28;19975;-40
2023/03/12 05:23:27;;;;;;;;;;;;;;;3.75;100.00;98583.19;4987487;28;19940;-40
2023/03/12 05:25:52;;;;;;;;;;;;;;;3.91;100.00;98593.22;4988210;28;19921;-40
2023/03/12 05:28:19;;;;;;;;;;;;;;;3.98;100.00;98599.91;4989370;28;19926;-40
2023/03/12 05:30:44;;;;;;;;;;;;;;;3.82;100.00;98590.78;4988520;28;19944;-40
2023/03/12 05:33:09;;;;;;;;;;;;;;;3.41;100.00;98586.97;4986393;28;21326;-40
2023/03/12 05:35:34;;;;;;;;;;;;;;;4.26;100.00;98609.78;4987855;28;19931;-40
2023/03/12 05:38:00;;;;;;;;;;;;;;;3.96;100.00;98606.72;4989447;28;19926;-40
2023/03/12 05:40:25;;;;;;;;;;;;;;;3.85;100.00;98591.56;4987911;28;19922;-40
2023/03/12 05:42:50;;;;;;;;;;;;;;;3.31;100.00;98588.75;4985707;28;19928;-40
2023/03/12 05:45:15;;;;;;;;;;;;;;;3.49;100.00;98615.72;4987650;28;19922;-40
2023/03/12 05:47:41;;;;;;;;;;;;;;;3.15;100.00;98605.88;4991697;28;20012;-40
2023/03/12 05:50:06;;;;;;;;;;;;;;;3.11;100.00;98584.69;4991844;28;19988;-40
2023/03/12 05:52:32;;;;;;;;;;;;;;;3.27;100.00;98587.94;4990078;28;20093;-40
2023/03/12 05:54:57;;;;;;;;;;;;;;;3.94;100.00;98598.25;4991687;28;20136;-40
2023/03/12 05:57:22;;;;;;;;;;;;;;;3.50;100.00;98574.97;4991001;28;20214;-40
2023/03/12 05:59:47;;;;;;;;;;;;;;;3.75;100.00;98573.00;4991569;28;20016;-40
2023/03/12 06:02:12;;;;;;;;;;;;;;;3.91;100.00;98571.13;4989813;28;20047;-40
2023/03/12 06:04:38;;;;;;;;;;;;;;;4.01;100.00;98569.31;4989674;28;20099;-40
2023/03/12 06:07:03;;;;;;;;;;;;;;;3.98;100.00;98548.97;4990085;28;19926;-40
2023/03/12 06:09:28;;;;;;;;;;;;;;;4.30;100.00;98540.06;4989040;28;19925;-40
2023/03/12 06:11:53;;;;;;;;;;;;;;;4.17;100.00;98512.19;4990424;28;19949;-40
2023/03/12 06:14:19;;;;;;;;;;;;;;;4.74;100.00;98525.78;4990811;28;20036;-40
2023/03/12 06:16:44;;;;;;;;;;;;;;;4.34;100.00;98480.53;4990483;28;20008;-40
2023/03/12 06:19:12;;;;;;;;;;;;;;;4.04;100.00;98469.03;4990086;28;19929;-40
2023/03/12 06:21:38;;;;;;;;;;;;;;;4.08;100.00;98463.91;4989213;28;19924;-40
2023/03/12 06:24:03;;;;;;;;;;;;;;;3.79;100.00;98461.75;4990699;28;19921;-40
2023/03/12 06:26:28;;;;;;;;;;;;;;;4.01;100.00;98467.38;4991048;28;19921;-40
2023/03/12 06:28:53;;;;;;;;;;;;;;;4.72;100.00;98481.59;4987613;28;19925;-40
2023/03/12 06:31:19;;;;;;;;;;;;;;;4.25;100.00;98478.09;4989098;28;19918;-40
2023/03/12 06:33:44;;;;;;;;;;;;;;;4.17;100.00;98471.44;4990653;28;19928;-40
2023/03/12 06:36:10;;;;;;;;;;;;;;;4.92;100.00;98469.34;4990700;28;19917;-40
2023/03/12 06:38:35;;;;;;;;;;;;;;;4.50;100.00;98436.06;4990441;28;19976;-40
2023/03/12 06:41:05;;;;;;;;;;;;;;;4.48;100.00;98442.88;4989036;28;19922;-40
2023/03/12 06:43:30;;;;;;;;;;;;;;;4.83;100.00;98438.88;4987212;28;19925;-40
2023/03/12 06:45:56;;;;;;;;;;;;;;;4.74;100.00;98429.69;4989407;28;19922;-40
2023/03/12 06:48:22;;;;;;;;;;;;;;;4.58;100.00;98416.38;4990137;28;19917;-40
2023/03/12 06:50:47;;;;;;;;;;;;;;;4.67;100.00;98428.13;4987891;28;19928;-40
2023/03/12 06:53:12;;;;;;;;;;;;;;;4.10;100.00;98426.50;4989153;28;20331;-40
2023/03/12 06:55:38;;;;;;;;;;;;;;;3.90;100.00;98434.44;4990098;28;19921;-40
2023/03/12 06:58:03;;;;;;;;;;;;;;;4.12;100.00;98451.94;4989959;28;19924;-40
2023/03/12 07:00:29;;;;;;;;;;;;;;;4.39;100.00;98456.63;4988812;28;19929;-40
2023/03/12 07:02:54;;;;;;;;;;;;;;;4.52;100.00;98439.44;4986972;28;19932;-40
2023/03/12 07:05:19;;;;;;;;;;;;;;;4.57;100.00;98435.09;4989297;28;20503;-40
2023/03/12 07:07:45;;;;;;;;;;;;;;;3.77;100.00;98418.47;4987818;28;20142;-40
2023/03/12 07:10:10;;;;;;;;;;;;;;;4.38;100.00;98461.75;4989888;28;20129;-40
2023/03/12 07:12:35;;;;;;;;;;;;;;;3.89;100.00;98437.84;4987527;28;20599;-40
2023/03/12 07:15:01;;;;;;;;;;;;;;;4.27;100.00;98461.94;4988943;28;19925;-40
2023/03/12 07:17:26;;;;;;;;;;;;;;;4.07;100.00;98451.19;4987271;28;19921;-40
2023/03/12 07:19:51;;;;;;;;;;;;;;;3.71;100.00;98433.84;4989507;28;19921;-40
2023/03/12 07:22:16;;;;;;;;;;;;;;;4.01;100.00;98448.72;4993269;28;20054;-40
2023/03/12 07:24:42;;;;;;;;;;;;;;;4.69;100.00;98451.06;4996972;28;21346;-40
2023/03/12 07:27:07;;;;;;;;;;;;;;;4.95;100.00;98446.34;4997244;28;20005;-40
2023/03/12 07:29:32;;;;;;;;;;;;;;;5.00;100.00;98441.16;4992069;28;20149;-40
2023/03/12 07:31:57;;;;;;;;;;;;;;;4.67;100.00;98452.78;4987665;28;19921;-40
2023/03/12 07:34:22;;;;;;;;;;;;;;;3.91;100.00;98435.28;4990059;28;19932;-40
2023/03/12 07:36:48;;;;;;;;;;;;;;;4.17;100.00;98486.72;4988865;28;19925;-40
2023/03/12 07:39:13;;;;;;;;;;;;;;;4.65;100.00;98495.31;4992556;28;19932;-40
2023/03/12 07:41:38;;;;;;;;;;;;;;;4.87;100.00;98501.75;4988982;28;19921;-40
2023/03/12 07:44:03;;;;;;;;;;;;;;;4.49;100.00;98490.47;4989412;28;19960;-40
2023/03/12 07:46:29;;;;;;;;;;;;;;;4.71;100.00;98485.03;4988368;28;19922;-40
2023/03/12 07:48:54;;;;;;;;;;;;;;;4.86;100.00;98479.66;4988340;28;19928;-40
2023/03/12 07:51:19;;;;;;;;;;;;;;;4.89;100.00;98466.00;4988974;28;20090;-40
2023/03/12 07:53:45;;;;;;;;;;;;;;;4.92;100.00;98474.44;4988358;28;20603;-40
2023/03/12 07:56:10;;;;;;;;;;;;;;;4.49;100.00;98479.41;4988753;28;20361;-40
2023/03/12 07:58:35;;;;;;;;;;;;;;;4.91;100.00;98503.38;4986969;28;19991;-40
2023/03/12 08:01:01;;;;;;;;;;;;;;;5.27;100.00;98518.94;4988078;28;19921;-40
2023/03/12 08:03:26;;;;;;;;;;;;;;;4.79;100.00;98499.34;4988480;28;19917;-40
2023/03/12 08:05:58;;;;;;;;;;;;;;;4.72;100.00;98532.59;4988614;28;19951;-40
2023/03/12 08:08:24;;;;;;;;;;;;;;;5.73;100.00;98547.84;4990126;28;19926;-40
2023/03/12 08:10:49;;;;;;;;;;;;;;;4.85;100.00;98523.06;4989650;28;19979;-40
2023/03/12 08:13:14;;;;;;;;;;;;;;;5.03;100.00;98569.50;4989070;28;19925;-40
2023/03/12 08:15:40;;;;;;;;;;;;;;;5.32;100.00;98606.47;4988840;28;19931;-40
2023/03/12 08:18:05;;;;;;;;;;;;;;;4.77;100.00;98628.63;4990393;28;20406;-40
2023/03/12 08:20:30;;;;;;;;;;;;;;;5.16;100.00;98676.53;4989558;28;20012;-40
2023/03/12 08:22:55;;;;;;;;;;;;;;;4.58;100.00;98708.78;4989078;28;20312;-40
2023/03/12 08:25:23;;;;;;;;;;;;;;;5.14;100.00;98795.69;4987991;28;19964;-40
2023/03/12 08:27:48;;;;;;;;;;;;;;;5.59;100.00;98850.38;4989187;28;20525;-40
2023/03/12 08:30:13;;;;;;;;;;;;;;;5.56;100.00;98859.78;4989626;28;19922;-40
2023/03/12 08:32:39;;;;;;;;;;;;;;;6.55;100.00;98931.59;4989207;28;19968;-40
2023/03/12 08:35:04;;;;;;;;;;;;;;;6.99;100.00;98947.88;4987809;28;19932;-40
2023/03/12 08:37:29;;;;;;;;;;;;;;;6.60;100.00;98893.13;4978981;28;19949;-40
2023/03/12 08:39:55;;;;;;;;;;;;;;;7.90;100.00;98949.44;4988558;28;19925;-40
2023/03/12 08:42:21;;;;;;;;;;;;;;;8.44;100.00;98886.66;4988787;28;19921;-40
2023/03/12 08:44:46;;;;;;;;;;;;;;;7.50;100.00;98837.56;4987522;28;20472;-41
2023/03/12 08:47:11;;;;;;;;;;;;;;;7.44;100.00;98834.28;4988419;28;20275;-41
2023/03/12 08:49:37;;;;;;;;;;;;;;;8.58;100.00;98860.66;4989035;28;20318;-40
2023/03/12 08:52:02;;;;;;;;;;;;;;;7.59;100.00;98751.09;4988609;28;20358;-40
2023/03/12 08:54:27;;;;;;;;;;;;;;;7.32;100.00;98769.66;4988182;28;20262;-40
2023/03/12 08:56:53;;;;;;;;;;;;;;;6.55;100.00;98726.91;4986988;28;20774;-40
2023/03/12 08:59:22;;;;;;;;;;;;;;;6.91;100.00;98791.00;4987888;28;20548;-40
2023/03/12 09:01:48;;;;;;;;;;;;;;;7.13;100.00;98891.28;4989301;28;20000;-40
2023/03/12 09:04:13;;;;;;;;;;;;;;;7.94;100.00;98947.69;4989143;28;19917;-41
2023/03/12 09:06:38;;;;;;;;;;;;;;;6.21;100.00;98893.78;4988993;28;19932;-40
2023/03/12 09:09:04;;;;;;;;;;;;;;;6.10;100.00;98954.44;4988960;28;20410;-40
2023/03/12 09:11:30;;;;;;;;;;;;;;;7.57;100.00;99084.25;4986037;28;20373;-40
2023/03/12 09:13:55;;;;;;;;;;;;;;;8.35;100.00;99116.06;4990492;28;19970;-40
2023/03/12 09:16:20;;;;;;;;;;;;;;;7.10;100.00;99048.38;4988709;28;19925;-40
2023/03/12 09:18:45;;;;;;;;;;;;;;;6.18;100.00;99037.03;4990980;28;19922;-40
2023/03/12 09:21:10;;;;;;;;;;;;;;;6.49;100.00;99132.06;4994497;28;19963;-40
2023/03/12 09:23:36;;;;;;;;;;;;;;;6.25;100.00;99175.88;4994318;28;20388;-40
2023/03/12 09:26:01;;;;;;;;;;;;;;;6.31;100.00;99226.94;4993314;28;20461;-40
2023/03/12 09:28:26;;;;;;;;;;;;;;;6.21;100.00;99268.84;4993571;28;20365;-40
2023/03/12 09:30:51;;;;;;;;;;;;;;;6.27;100.00;99325.91;4991253;28;20417;-40
2023/03/12 09:33:17;;;;;;;;;;;;;;;6.46;100.00;99382.84;4989137;28;20453;-40
2023/03/12 09:35:42;;;;;;;;;;;;;;;6.47;100.00;99416.94;4992381;28;20036;-40
2023/03/12 09:38:10;;;;;;;;;;;;;;;7.20;100.00;99499.03;4991871;28;20953;-40
2023/03/12 09:40:38;;;;;;;;;;;;;;;6.64;100.00;99489.31;4988383;28;20007;-40
2023/03/12 09:43:09;;;;;;;;;;;;;;;6.66;100.00;99519.97;4987242;28;20148;-40
2023/03/12 09:45:41;;;;;;;;;;;;;;;7.52;100.00;99650.72;4986893;28;19953;-40
2023/03/12 09:48:06;;;;;;;;;;;;;;;6.40;100.00;99591.81;4989337;28;19917;-40
2023/03/12 09:50:39;;;;;;;;;;;;;;;6.73;100.00;99671.81;4989391;28;19992;-40
2023/03/12 09:53:10;;;;;;;;;;;;;;;6.86;100.00;99760.47;4987864;28;20028;-40
2023/03/12 09:55:36;;;;;;;;;;;;;;;6.65;100.00;99793.00;4989891;28;19931;-40
2023/03/12 09:58:02;;;;;;;;;;;;;;;6.81;100.00;99839.03;4989934;28;20428;-40
2023/03/12 10:00:31;;;;;;;;;;;;;;;6.76;100.00;99867.19;4990268;28;20599;-40
2023/03/12 10:03:12;;;;;;;;;;;;;;;6.49;100.00;99894.53;4992152;28;19936;-40
2023/03/12 10:05:40;;;;;;;;;;;;;;;7.21;100.00;99983.19;4990822;28;20425;-40
2023/03/12 10:08:11;;;;;;;;;;;;;;;6.80;100.00;100165.88;4989216;28;19925;-40
2023/03/12 10:10:45;;;;;;;;;;;;;;;7.29;100.00;100267.56;4989705;28;21486;-40
2023/03/12 10:13:11;;;;;;;;;;;;;;;7.51;100.00;100328.28;4990165;28;21262;-40
2023/03/12 10:15:39;;;;;;;;;;;;;;;7.52;100.00;100363.28;4990154;28;19932;-40
2023/03/12 10:18:07;;;;;;;;;;;;;;;6.91;100.00;100338.34;4990808;28;20810;-40
2023/03/12 10:20:40;;;;;;;;;;;;;;;7.12;100.00;100398.19;4985872;28;19933;-40
2023/03/12 10:23:06;;;;;;;;;;;;;;;7.43;100.00;100460.66;5005327;28;20055;-40
2023/03/12 10:25:36;;;;;;;;;;;;;;;7.38;100.00;100482.00;4990403;28;19925;-40
2023/03/12 10:28:08;;;;;;;;;;;;;;;7.75;100.00;100524.91;4991606;28;21351;-40
2023/03/12 10:30:35;;;;;;;;;;;;;;;7.35;100.00;100489.69;4988543;28;19925;-40
2023/03/12 10:33:03;;;;;;;;;;;;;;;7.66;100.00;100549.63;4994429;28;19921;-40
2023/03/12 10:35:31;;;;;;;;;;;;;;;7.38;100.00;100534.13;4994252;28;19945;-40
2023/03/12 10:37:58;;;;;;;;;;;;;;;7.19;100.00;100545.13;4998891;28;20301;-40
2023/03/12 10:40:24;;;;;;;;;;;;;;;8.28;100.00;100659.38;4998394;28;19944;-40
2023/03/12 10:42:50;;;;;;;;;;;;;;;8.11;100.00;100620.81;4994278;28;20487;-40
2023/03/12 10:45:35;;;;;;;;;;;;;;;7.85;100.00;100601.91;4999813;28;19979;-40
2023/03/12 10:48:06;;;;;;;;;;;;;;;7.81;100.00;100605.28;4992726;28;19921;-40
2023/03/12 10:50:32;;;;;;;;;;;;;;;8.05;100.00;100645.56;4990194;28;19928;-41
2023/03/12 10:53:31;;;;;;;;;;;;;;;7.66;100.00;100586.41;4991672;28;19924;-40
2023/03/12 10:56:00;;;;;;;;;;;;;;;8.01;100.00;100674.66;4989681;28;19945;-40
2023/03/12 10:58:30;;;;;;;;;;;;;;;8.07;100.00;100682.38;5007777;28;19952;-41
2023/03/12 11:00:56;;;;;;;;;;;;;;;7.71;100.00;100673.63;4994418;28;21667;-40
2023/03/12 11:03:21;;;;;;;;;;;;;;;7.88;100.00;100719.88;4993149;28;20542;-40
2023/03/12 11:05:50;;;;;;;;;;;;;;;8.04;100.00;100761.91;4995176;28;19956;-40
2023/03/12 11:08:23;;;;;;;;;;;;;;;7.89;100.00;100791.75;4993321;28;19983;-40
2023/03/12 11:10:48;;;;;;;;;;;;;;;8.29;100.00;100880.97;4992017;28;21770;-40
2023/03/12 11:13:19;;;;;;;;;;;;;;;8.58;100.00;100922.31;4992549;28;19924;-40
2023/03/12 11:15:45;;;;;;;;;;;;;;;8.37;100.00;100913.56;4992169;28;20059;-40
2023/03/12 11:18:17;;;;;;;;;;;;;;;8.18;100.00;100904.00;4992717;28;22052;-40
2023/03/12 11:20:43;;;;;;;;;;;;;;;7.98;100.00;100942.28;4991077;28;19929;-40
2023/03/12 11:23:21;;;;;;;;;;;;;;;8.38;100.00;101002.56;4991846;28;20720;-40
2023/03/12 11:25:51;;;;;;;;;;;;;;;8.09;100.00;100998.84;4990421;28;19944;-40
2023/03/12 11:28:17;;;;;;;;;;;;;;;8.44;100.00;101052.28;4994722;28;19922;-40
2023/03/12 11:30:42;;;;;;;;;;;;;;;8.09;100.00;101032.22;4986909;28;19926;-40
2023/03/12 11:33:08;;;;;;;;;;;;;;;8.01;100.00;101044.97;4989769;28;19982;-40
2023/03/12 11:35:52;;;;;;;;;;;;;;;8.48;100.00;101121.66;4990844;28;19918;-40
2023/03/12 11:38:17;;;;;;;;;;;;;;;8.79;100.00;101155.38;4993424;28;20008;-40
2023/03/12 11:40:52;;;;;;;;;;;;;;;9.11;100.00;101204.50;4990806;28;20011;-40
2023/03/12 11:43:17;;;;;;;;;;;;;;;8.79;100.00;101175.94;4988162;28;19925;-40
2023/03/12 11:46:01;;;;;;;;;;;;;;;9.08;100.00;101209.63;4993778;28;20008;-40
2023/03/12 11:48:45;;;;;;;;;;;;;;;8.79;100.00;101165.66;4989771;28;19921;-40
2023/03/12 11:51:13;;;;;;;;;;;;;;;9.33;100.00;101215.84;4990489;28;19939;-40
2023/03/12 11:53:54;;;;;;;;;;;;;;;9.05;100.00;101177.88;4993710;28;19922;-40
2023/03/12 11:56:23;;;;;;;;;;;;;;;9.41;100.00;101196.19;4987087;28;19921;-40
2023/03/12 11:58:54;;;;;;;;;;;;;;;9.51;100.00;101181.72;4988482;28;19930;-40
2023/03/12 12:01:31;;;;;;;;;;;;;;;9.86;100.00;101186.22;4989708;28;21654;-40
2023/03/12 12:04:12;;;;;;;;;;;;;;;9.59;100.00;101174.03;4990774;28;19926;-40
2023/03/12 12:06:49;;;;;;;;;;;;;;;8.10;100.00;101092.97;4989004;28;19929;-40
2023/03/12 12:09:20;;;;;;;;;;;;;;;8.42;100.00;101196.06;4994575;28;20910;-40
2023/03/12 12:11:55;;;;;;;;;;;;;;;9.28;98.56;101322.91;4987609;28;20119;-40
2023/03/12 12:14:20;;;;;;;;;;;;;;;9.90;99.08;101383.59;5005266;28;20012;-40
2023/03/12 12:16:50;;;;;;;;;;;;;;;9.43;100.00;101345.38;4988185;28;19932;-40
2023/03/12 12:19:28;;;;;;;;;;;;;;;10.01;100.00;101402.56;4988430;28;19925;-40
2023/03/12 12:22:01;;;;;;;;;;;;;;;9.42;100.00;101348.81;4987091;28;19973;-41
2023/03/12 12:24:26;;;;;;;;;;;;;;;8.83;99.13;101337.00;4989132;28;19917;-40
2023/03/12 12:26:54;;;;;;;;;;;;;;;9.38;87.23;101416.47;4990740;28;19968;-40
2023/03/12 12:29:38;;;;;;;;;;;;;;;9.36;84.94;101425.88;4986114;28;19975;-40
2023/03/12 12:32:03;;;;;;;;;;;;;;;9.26;80.44;101458.34;4989566;28;19983;-40
2023/03/12 12:34:28;;;;;;;;;;;;;;;9.71;73.09;101500.03;5003540;28;19925;-40
2023/03/12 12:37:03;;;;;;;;;;;;;;;9.13;72.91;101480.44;4991188;28;19921;-40
2023/03/12 12:39:30;;;;;;;;;;;;;;;9.02;70.28;101497.41;4989804;28;19937;-40
2023/03/12 12:41:56;;;;;;;;;;;;;;;9.81;56.56;101590.25;5007769;28;20021;-40
2023/03/12 12:44:35;;;;;;;;;;;;;;;9.42;61.65;101570.00;4989397;28;19929;-40